sensor_id;sensor_type;location;lat;lon;timestamp;pressure;altitude;pressure_sealevel;temperature;humidity
43934;BME280;59081;42.706;23.306;2023-11-21T00:04:34;95018.81;;;2.32;100.00
43934;BME280;59081;42.706;23.306;2023-11-21T00:09:34;94929.91;;;2.00;100.00
43934;BME280;59081;42.706;23.306;2023-11-21T00:14:37;94989.69;;;2.04;100.00
43934;BME280;59081;42.706;23.306;2023-11-21T00:19:38;95088.75;;;2.92;100.00
43934;BME280;59081;42.706;23.306;2023-11-21T00:24:39;95075.13;;;2.49;100.00
43934;BME280;59081;42.706;23.306;2023-11-21T00:29:40;94931.84;;;1.89;100.00
43934;BME280;59081;42.706;23.306;2023-11-21T00:34:41;95011.03;;;2.27;100.00
43934;BME280;59081;42.706;23.306;2023-11-21T00:39:42;94913.53;;;1.40;100.00
43934;BME280;59081;42.706;23.306;2023-11-21T00:44:43;95001.72;;;2.45;100.00
43934;BME280;59081;42.706;23.306;2023-11-21T00:49:43;94908.09;;;1.33;100.00
43934;BME280;59081;42.706;23.306;2023-11-21T00:54:44;95069.31;;;2.79;100.00
43934;BME280;59081;42.706;23.306;2023-11-21T00:59:45;94923.66;;;1.50;100.00
43934;BME280;59081;42.706;23.306;2023-11-21T01:04:45;94941.94;;;2.03;100.00
43934;BME280;59081;42.706;23.306;2023-11-21T01:09:47;94944.22;;;1.62;100.00
43934;BME280;59081;42.706;23.306;2023-11-21T01:14:48;95027.34;;;2.13;100.00
43934;BME280;59081;42.706;23.306;2023-11-21T01:19:49;95056.09;;;2.38;100.00
43934;BME280;59081;42.706;23.306;2023-11-21T01:24:49;95010.22;;;1.84;100.00
43934;BME280;59081;42.706;23.306;2023-11-21T01:29:50;95050.28;;;2.75;100.00
43934;BME280;59081;42.706;23.306;2023-11-21T01:34:54;94933.69;;;1.32;100.00
43934;BME280;59081;42.706;23.306;2023-11-21T01:39:55;94899.22;;;1.57;100.00
43934;BME280;59081;42.706;23.306;2023-11-21T01:44:56;95045.16;;;1.89;100.00
43934;BME280;59081;42.706;23.306;2023-11-21T01:49:56;94921.25;;;1.27;100.00
43934;BME280;59081;42.706;23.306;2023-11-21T01:54:59;94934.41;;;1.22;100.00
43934;BME280;59081;42.706;23.306;2023-11-21T02:00:00;95041.94;;;1.58;100.00
43934;BME280;59081;42.706;23.306;2023-11-21T02:05:15;95046.69;;;1.83;100.00
43934;BME280;59081;42.706;23.306;2023-11-21T02:10:19;95052.03;;;1.58;100.00
43934;BME280;59081;42.706;23.306;2023-11-21T02:15:23;94934.03;;;1.23;100.00
43934;BME280;59081;42.706;23.306;2023-11-21T02:20:27;94959.19;;;1.10;100.00
43934;BME280;59081;42.706;23.306;2023-11-21T02:25:30;94900.91;;;0.72;100.00
43934;BME280;59081;42.706;23.306;2023-11-21T02:30:32;94837.06;;;0.88;100.00
43934;BME280;59081;42.706;23.306;2023-11-21T02:35:32;95015.97;;;1.54;100.00
43934;BME280;59081;42.706;23.306;2023-11-21T02:40:33;94958.91;;;1.39;100.00
43934;BME280;59081;42.706;23.306;2023-11-21T02:45:34;95016.31;;;1.45;100.00
43934;BME280;59081;42.706;23.306;2023-11-21T02:50:34;94881.81;;;0.47;100.00
43934;BME280;59081;42.706;23.306;2023-11-21T02:55:35;94952.63;;;1.21;100.00
43934;BME280;59081;42.706;23.306;2023-11-21T03:00:36;94822.44;;;0.20;100.00
43934;BME280;59081;42.706;23.306;2023-11-21T03:05:36;94889.03;;;1.01;100.00
43934;BME280;59081;42.706;23.306;2023-11-21T03:10:37;94878.75;;;0.52;100.00
43934;BME280;59081;42.706;23.306;2023-11-21T03:15:38;94922.19;;;0.66;100.00
43934;BME280;59081;42.706;23.306;2023-11-21T03:20:38;94882.00;;;0.82;100.00
43934;BME280;59081;42.706;23.306;2023-11-21T03:25:39;94909.72;;;0.54;100.00
43934;BME280;59081;42.706;23.306;2023-11-21T03:30:39;94972.03;;;1.23;100.00
43934;BME280;59081;42.706;23.306;2023-11-21T03:35:40;94886.47;;;0.53;100.00
43934;BME280;59081;42.706;23.306;2023-11-21T03:40:42;94906.28;;;0.61;100.00
43934;BME280;59081;42.706;23.306;2023-11-21T03:45:43;94990.34;;;1.58;100.00
43934;BME280;59081;42.706;23.306;2023-11-21T03:50:43;95026.75;;;1.36;100.00
43934;BME280;59081;42.706;23.306;2023-11-21T03:55:44;95020.25;;;1.62;100.00
43934;BME280;59081;42.706;23.306;2023-11-21T04:00:46;94891.91;;;0.53;100.00
43934;BME280;59081;42.706;23.306;2023-11-21T04:05:47;94876.00;;;0.45;100.00
43934;BME280;59081;42.706;23.306;2023-11-21T04:10:50;94999.66;;;1.57;100.00
43934;BME280;59081;42.706;23.306;2023-11-21T04:15:51;95004.66;;;1.34;100.00
43934;BME280;59081;42.706;23.306;2023-11-21T04:20:52;94885.75;;;0.60;100.00
43934;BME280;59081;42.706;23.306;2023-11-21T04:25:52;94916.78;;;0.66;100.00
43934;BME280;59081;42.706;23.306;2023-11-21T04:30:54;94804.06;;;-0.15;100.00
43934;BME280;59081;42.706;23.306;2023-11-21T04:35:55;94840.31;;;0.35;100.00
43934;BME280;59081;42.706;23.306;2023-11-21T04:40:56;94860.94;;;-0.11;100.00
43934;BME280;59081;42.706;23.306;2023-11-21T04:45:57;94990.44;;;0.82;100.00
43934;BME280;59081;42.706;23.306;2023-11-21T04:50:58;94904.75;;;-0.02;100.00
43934;BME280;59081;42.706;23.306;2023-11-21T04:55:59;94993.25;;;0.38;100.00
43934;BME280;59081;42.706;23.306;2023-11-21T05:00:59;94823.84;;;-0.07;100.00
43934;BME280;59081;42.706;23.306;2023-11-21T05:06:01;94925.38;;;0.20;100.00
43934;BME280;59081;42.706;23.306;2023-11-21T05:11:01;95023.38;;;0.84;100.00
43934;BME280;59081;42.706;23.306;2023-11-21T05:16:03;94942.31;;;0.65;100.00
43934;BME280;59081;42.706;23.306;2023-11-21T05:21:09;94825.25;;;-0.27;100.00
43934;BME280;59081;42.706;23.306;2023-11-21T05:26:10;94810.75;;;0.99;100.00
43934;BME280;59081;42.706;23.306;2023-11-21T05:31:11;94970.81;;;3.34;100.00
43934;BME280;59081;42.706;23.306;2023-11-21T05:36:14;94915.03;;;2.87;100.00
43934;BME280;59081;42.706;23.306;2023-11-21T05:41:15;94834.50;;;0.30;100.00
43934;BME280;59081;42.706;23.306;2023-11-21T05:46:15;94990.38;;;1.62;100.00
43934;BME280;59081;42.706;23.306;2023-11-21T05:51:19;94790.97;;;-0.09;100.00
43934;BME280;59081;42.706;23.306;2023-11-21T05:56:20;94894.25;;;0.55;100.00
43934;BME280;59081;42.706;23.306;2023-11-21T06:01:20;94954.63;;;1.35;100.00
43934;BME280;59081;42.706;23.306;2023-11-21T06:06:24;95027.97;;;1.49;100.00
43934;BME280;59081;42.706;23.306;2023-11-21T06:11:26;94880.03;;;0.79;100.00
43934;BME280;59081;42.706;23.306;2023-11-21T06:16:26;94924.53;;;0.67;100.00
43934;BME280;59081;42.706;23.306;2023-11-21T06:21:28;94844.72;;;-0.11;100.00
43934;BME280;59081;42.706;23.306;2023-11-21T06:26:29;94933.22;;;1.12;100.00
43934;BME280;59081;42.706;23.306;2023-11-21T06:31:30;94913.84;;;0.30;100.00
43934;BME280;59081;42.706;23.306;2023-11-21T06:36:33;94891.00;;;0.28;100.00
43934;BME280;59081;42.706;23.306;2023-11-21T06:41:34;94983.78;;;1.56;100.00
43934;BME280;59081;42.706;23.306;2023-11-21T06:46:35;94960.91;;;0.70;100.00
43934;BME280;59081;42.706;23.306;2023-11-21T06:51:36;95024.53;;;1.66;100.00
43934;BME280;59081;42.706;23.306;2023-11-21T06:56:37;94948.78;;;1.19;100.00
43934;BME280;59081;42.706;23.306;2023-11-21T07:01:39;94834.53;;;0.33;100.00
43934;BME280;59081;42.706;23.306;2023-11-21T07:06:42;94934.53;;;1.64;100.00
43934;BME280;59081;42.706;23.306;2023-11-21T07:11:43;94896.44;;;1.18;100.00
43934;BME280;59081;42.706;23.306;2023-11-21T07:16:44;94919.81;;;1.76;100.00
43934;BME280;59081;42.706;23.306;2023-11-21T07:21:45;95073.19;;;2.78;100.00
43934;BME280;59081;42.706;23.306;2023-11-21T07:26:46;94887.59;;;1.64;100.00
43934;BME280;59081;42.706;23.306;2023-11-21T07:31:50;94927.19;;;2.25;100.00
43934;BME280;59081;42.706;23.306;2023-11-21T07:36:53;94942.72;;;2.28;100.00
43934;BME280;59081;42.706;23.306;2023-11-21T07:41:55;94863.47;;;2.55;100.00
43934;BME280;59081;42.706;23.306;2023-11-21T07:46:59;94889.13;;;2.32;100.00
43934;BME280;59081;42.706;23.306;2023-11-21T07:52:03;94855.19;;;2.83;100.00
43934;BME280;59081;42.706;23.306;2023-11-21T08:02:28;94847.69;;;3.08;100.00
43934;BME280;59081;42.706;23.306;2023-11-21T08:07:29;94925.19;;;3.59;99.32
43934;BME280;59081;42.706;23.306;2023-11-21T08:12:30;94949.59;;;3.80;100.00
43934;BME280;59081;42.706;23.306;2023-11-21T08:17:31;94853.72;;;3.44;97.94
43934;BME280;59081;42.706;23.306;2023-11-21T08:22:36;94795.38;;;3.45;96.03
43934;BME280;59081;42.706;23.306;2023-11-21T08:28:00;94889.84;;;4.04;95.32
43934;BME280;59081;42.706;23.306;2023-11-21T08:33:16;94892.28;;;4.36;95.08
43934;BME280;59081;42.706;23.306;2023-11-21T08:38:18;94847.00;;;4.49;90.83
43934;BME280;59081;42.706;23.306;2023-11-21T08:43:24;94859.97;;;4.34;92.99
43934;BME280;59081;42.706;23.306;2023-11-21T08:48:24;94900.44;;;5.14;89.80
43934;BME280;59081;42.706;23.306;2023-11-21T08:53:29;94889.31;;;4.64;92.54
43934;BME280;59081;42.706;23.306;2023-11-21T08:58:31;94947.47;;;6.17;89.97
43934;BME280;59081;42.706;23.306;2023-11-21T09:03:38;94998.78;;;5.75;90.73
43934;BME280;59081;42.706;23.306;2023-11-21T09:08:39;94912.28;;;5.92;88.17
43934;BME280;59081;42.706;23.306;2023-11-21T09:13:42;94833.91;;;5.32;88.09
43934;BME280;59081;42.706;23.306;2023-11-21T09:18:44;94855.47;;;5.53;89.64
43934;BME280;59081;42.706;23.306;2023-11-21T09:23:45;94965.44;;;6.18;87.96
43934;BME280;59081;42.706;23.306;2023-11-21T09:29:12;94943.19;;;6.16;88.72
43934;BME280;59081;42.706;23.306;2023-11-21T09:34:15;94793.66;;;6.09;85.91
43934;BME280;59081;42.706;23.306;2023-11-21T09:39:15;94910.56;;;6.52;87.02
43934;BME280;59081;42.706;23.306;2023-11-21T09:44:29;94734.31;;;6.49;83.90
43934;BME280;59081;42.706;23.306;2023-11-21T09:49:33;94729.91;;;5.92;84.48
43934;BME280;59081;42.706;23.306;2023-11-21T09:54:35;94669.44;;;6.30;81.99
43934;BME280;59081;42.706;23.306;2023-11-21T09:59:37;94701.06;;;6.87;80.13
43934;BME280;59081;42.706;23.306;2023-11-21T10:04:38;94716.56;;;6.18;83.18
43934;BME280;59081;42.706;23.306;2023-11-21T10:09:42;94805.63;;;8.19;78.75
43934;BME280;59081;42.706;23.306;2023-11-21T10:14:49;94691.38;;;7.18;79.36
43934;BME280;59081;42.706;23.306;2023-11-21T10:19:53;94698.28;;;8.17;76.27
43934;BME280;59081;42.706;23.306;2023-11-21T10:24:56;94822.44;;;9.36;72.45
43934;BME280;59081;42.706;23.306;2023-11-21T10:30:03;94822.38;;;8.41;77.53
43934;BME280;59081;42.706;23.306;2023-11-21T10:35:05;94629.97;;;7.32;74.88
43934;BME280;59081;42.706;23.306;2023-11-21T10:40:20;94645.88;;;6.72;78.57
43934;BME280;59081;42.706;23.306;2023-11-21T10:45:21;94692.09;;;7.84;76.50
43934;BME280;59081;42.706;23.306;2023-11-21T10:50:23;94635.56;;;8.31;71.96
43934;BME280;59081;42.706;23.306;2023-11-21T10:55:26;94597.13;;;6.99;75.86
43934;BME280;59081;42.706;23.306;2023-11-21T11:00:31;94630.31;;;7.95;75.94
43934;BME280;59081;42.706;23.306;2023-11-21T11:05:32;94785.91;;;8.69;73.95
43934;BME280;59081;42.706;23.306;2023-11-21T11:10:34;94712.59;;;7.95;76.05
43934;BME280;59081;42.706;23.306;2023-11-21T11:15:39;94576.75;;;7.91;71.79
43934;BME280;59081;42.706;23.306;2023-11-21T11:20:42;94685.38;;;7.72;74.88
43934;BME280;59081;42.706;23.306;2023-11-21T11:26:15;94744.16;;;8.61;76.00
43934;BME280;59081;42.706;23.306;2023-11-21T11:36:48;94549.22;;;7.08;75.53
43934;BME280;59081;42.706;23.306;2023-11-21T11:41:53;94664.75;;;8.54;73.31
43934;BME280;59081;42.706;23.306;2023-11-21T11:46:57;94628.13;;;7.74;75.61
43934;BME280;59081;42.706;23.306;2023-11-21T11:52:35;94760.00;;;8.70;76.92
43934;BME280;59081;42.706;23.306;2023-11-21T11:57:38;94654.97;;;8.66;75.19
43934;BME280;59081;42.706;23.306;2023-11-21T12:02:55;94734.97;;;8.23;81.56
43934;BME280;59081;42.706;23.306;2023-11-21T12:07:59;94598.19;;;7.80;79.50
43934;BME280;59081;42.706;23.306;2023-11-21T12:13:07;94535.28;;;6.86;83.87
43934;BME280;59081;42.706;23.306;2023-11-21T12:18:12;94566.13;;;6.54;90.10
43934;BME280;59081;42.706;23.306;2023-11-21T12:23:13;94681.34;;;8.06;89.50
43934;BME280;59081;42.706;23.306;2023-11-21T12:28:46;94609.88;;;6.74;94.92
43934;BME280;59081;42.706;23.306;2023-11-21T12:34:21;94735.41;;;7.60;95.27
43934;BME280;59081;42.706;23.306;2023-11-21T12:39:25;94592.31;;;6.55;92.75
43934;BME280;59081;42.706;23.306;2023-11-21T12:44:26;94653.91;;;6.43;99.50
43934;BME280;59081;42.706;23.306;2023-11-21T12:49:30;94713.78;;;7.62;98.33
43934;BME280;59081;42.706;23.306;2023-11-21T12:54:33;94554.81;;;6.00;98.17
43934;BME280;59081;42.706;23.306;2023-11-21T12:59:35;94541.53;;;6.18;96.68
43934;BME280;59081;42.706;23.306;2023-11-21T13:04:39;94695.09;;;7.89;95.16
43934;BME280;59081;42.706;23.306;2023-11-21T13:09:40;94634.66;;;6.67;96.82
43934;BME280;59081;42.706;23.306;2023-11-21T13:14:41;94654.22;;;7.33;96.24
43934;BME280;59081;42.706;23.306;2023-11-21T13:19:43;94532.78;;;6.07;99.54
43934;BME280;59081;42.706;23.306;2023-11-21T13:24:44;94615.50;;;6.83;97.98
43934;BME280;59081;42.706;23.306;2023-11-21T13:29:44;94646.16;;;7.59;93.14
43934;BME280;59081;42.706;23.306;2023-11-21T13:34:45;94520.16;;;6.13;95.34
43934;BME280;59081;42.706;23.306;2023-11-21T13:39:47;94565.38;;;7.02;94.58
43934;BME280;59081;42.706;23.306;2023-11-21T13:44:55;94665.59;;;7.48;94.33
43934;BME280;59081;42.706;23.306;2023-11-21T13:49:56;94631.38;;;7.24;95.98
43934;BME280;59081;42.706;23.306;2023-11-21T13:54:56;94565.94;;;7.42;93.50
43934;BME280;59081;42.706;23.306;2023-11-21T14:00:00;94577.81;;;6.90;95.14
43934;BME280;59081;42.706;23.306;2023-11-21T14:05:01;94523.81;;;6.91;94.80
43934;BME280;59081;42.706;23.306;2023-11-21T14:10:09;94600.97;;;7.02;96.80
43934;BME280;59081;42.706;23.306;2023-11-21T14:15:14;94571.97;;;6.88;98.05
43934;BME280;59081;42.706;23.306;2023-11-21T14:20:19;94662.72;;;7.84;96.04
43934;BME280;59081;42.706;23.306;2023-11-21T14:25:23;94575.13;;;6.71;98.80
43934;BME280;59081;42.706;23.306;2023-11-21T14:30:24;94555.19;;;7.19;96.55
43934;BME280;59081;42.706;23.306;2023-11-21T14:35:28;94540.66;;;6.73;97.10
43934;BME280;59081;42.706;23.306;2023-11-21T14:40:32;94534.50;;;6.69;98.79
43934;BME280;59081;42.706;23.306;2023-11-21T14:45:38;94622.13;;;7.79;96.64
43934;BME280;59081;42.706;23.306;2023-11-21T14:50:39;94647.13;;;7.36;99.67
43934;BME280;59081;42.706;23.306;2023-11-21T14:55:40;94495.56;;;6.61;99.54
43934;BME280;59081;42.706;23.306;2023-11-21T15:00:50;94660.09;;;7.48;98.89
43934;BME280;59081;42.706;23.306;2023-11-21T15:06:03;94625.78;;;7.27;100.00
43934;BME280;59081;42.706;23.306;2023-11-21T15:11:20;94646.22;;;8.00;99.08
43934;BME280;59081;42.706;23.306;2023-11-21T15:16:25;94652.31;;;7.30;100.00
43934;BME280;59081;42.706;23.306;2023-11-21T15:21:28;94638.91;;;7.81;100.00
43934;BME280;59081;42.706;23.306;2023-11-21T15:26:29;94451.78;;;5.97;100.00
43934;BME280;59081;42.706;23.306;2023-11-21T15:31:29;94499.69;;;6.70;100.00
43934;BME280;59081;42.706;23.306;2023-11-21T15:36:30;94518.16;;;6.49;100.00
43934;BME280;59081;42.706;23.306;2023-11-21T15:41:31;94481.84;;;5.97;100.00
43934;BME280;59081;42.706;23.306;2023-11-21T15:46:31;94529.03;;;6.69;100.00
43934;BME280;59081;42.706;23.306;2023-11-21T15:51:32;94510.09;;;5.90;100.00
43934;BME280;59081;42.706;23.306;2023-11-21T15:56:35;94520.16;;;6.13;100.00
43934;BME280;59081;42.706;23.306;2023-11-21T16:01:36;94533.06;;;6.12;100.00
43934;BME280;59081;42.706;23.306;2023-11-21T16:06:43;94467.13;;;5.35;100.00
43934;BME280;59081;42.706;23.306;2023-11-21T16:11:43;94545.69;;;6.58;100.00
43934;BME280;59081;42.706;23.306;2023-11-21T16:16:45;94613.81;;;6.37;100.00
43934;BME280;59081;42.706;23.306;2023-11-21T16:21:48;94544.50;;;5.87;100.00
43934;BME280;59081;42.706;23.306;2023-11-21T16:26:49;94488.25;;;5.50;100.00
43934;BME280;59081;42.706;23.306;2023-11-21T16:31:50;94565.53;;;5.90;100.00
43934;BME280;59081;42.706;23.306;2023-11-21T16:36:52;94527.13;;;5.78;100.00
43934;BME280;59081;42.706;23.306;2023-11-21T16:41:53;94566.72;;;5.89;100.00
43934;BME280;59081;42.706;23.306;2023-11-21T16:46:56;94514.78;;;7.52;100.00
43934;BME280;59081;42.706;23.306;2023-11-21T16:52:00;94464.38;;;5.35;100.00
43934;BME280;59081;42.706;23.306;2023-11-21T16:57:01;94455.56;;;5.47;100.00
43934;BME280;59081;42.706;23.306;2023-11-21T17:02:03;94444.25;;;5.05;100.00
43934;BME280;59081;42.706;23.306;2023-11-21T17:07:05;94483.69;;;5.24;100.00
43934;BME280;59081;42.706;23.306;2023-11-21T17:12:06;94424.19;;;5.15;100.00
43934;BME280;59081;42.706;23.306;2023-11-21T17:17:07;94464.88;;;5.30;100.00
43934;BME280;59081;42.706;23.306;2023-11-21T17:22:08;94501.75;;;5.38;100.00
43934;BME280;59081;42.706;23.306;2023-11-21T17:27:09;94560.50;;;5.69;100.00
43934;BME280;59081;42.706;23.306;2023-11-21T17:32:10;94471.22;;;5.23;100.00
43934;BME280;59081;42.706;23.306;2023-11-21T17:37:11;94429.16;;;5.20;100.00
43934;BME280;59081;42.706;23.306;2023-11-21T17:42:12;94537.50;;;5.86;100.00
43934;BME280;59081;42.706;23.306;2023-11-21T17:47:13;94460.69;;;7.11;100.00
43934;BME280;59081;42.706;23.306;2023-11-21T17:52:14;94434.53;;;6.00;100.00
43934;BME280;59081;42.706;23.306;2023-11-21T17:57:15;94579.97;;;5.91;100.00
43934;BME280;59081;42.706;23.306;2023-11-21T18:02:16;94419.31;;;4.64;100.00
43934;BME280;59081;42.706;23.306;2023-11-21T18:13:01;94568.13;;;5.98;100.00
43934;BME280;59081;42.706;23.306;2023-11-21T18:18:06;94376.16;;;4.59;100.00
43934;BME280;59081;42.706;23.306;2023-11-21T18:23:13;94323.16;;;4.16;100.00
43934;BME280;59081;42.706;23.306;2023-11-21T18:33:23;94338.53;;;4.50;100.00
43934;BME280;59081;42.706;23.306;2023-11-21T18:38:25;94356.91;;;4.46;100.00
43934;BME280;59081;42.706;23.306;2023-11-21T18:43:26;94408.09;;;4.81;100.00
43934;BME280;59081;42.706;23.306;2023-11-21T18:48:27;94453.94;;;5.30;100.00
43934;BME280;59081;42.706;23.306;2023-11-21T18:53:30;94440.28;;;4.90;100.00
43934;BME280;59081;42.706;23.306;2023-11-21T18:58:34;94444.81;;;4.77;100.00
43934;BME280;59081;42.706;23.306;2023-11-21T19:03:36;94488.75;;;5.65;100.00
43934;BME280;59081;42.706;23.306;2023-11-21T19:08:36;94546.03;;;5.49;100.00
43934;BME280;59081;42.706;23.306;2023-11-21T19:13:38;94528.16;;;5.24;100.00
43934;BME280;59081;42.706;23.306;2023-11-21T19:18:41;94409.44;;;4.50;100.00
43934;BME280;59081;42.706;23.306;2023-11-21T19:23:42;94409.44;;;4.70;100.00
43934;BME280;59081;42.706;23.306;2023-11-21T19:28:43;94336.13;;;3.85;100.00
43934;BME280;59081;42.706;23.306;2023-11-21T19:33:47;94312.81;;;3.61;100.00
43934;BME280;59081;42.706;23.306;2023-11-21T19:38:56;94325.13;;;3.93;100.00
43934;BME280;59081;42.706;23.306;2023-11-21T19:43:58;94490.50;;;4.93;100.00
43934;BME280;59081;42.706;23.306;2023-11-21T19:49:00;94540.78;;;5.58;100.00
43934;BME280;59081;42.706;23.306;2023-11-21T19:54:03;94458.34;;;5.63;100.00
43934;BME280;59081;42.706;23.306;2023-11-21T19:59:03;94389.63;;;5.45;100.00
43934;BME280;59081;42.706;23.306;2023-11-21T20:04:04;94418.69;;;5.91;100.00
43934;BME280;59081;42.706;23.306;2023-11-21T20:09:04;94430.00;;;6.25;100.00
43934;BME280;59081;42.706;23.306;2023-11-21T20:14:05;94522.00;;;5.60;100.00
43934;BME280;59081;42.706;23.306;2023-11-21T20:19:06;94521.94;;;5.83;100.00
43934;BME280;59081;42.706;23.306;2023-11-21T20:24:08;94387.69;;;5.45;100.00
43934;BME280;59081;42.706;23.306;2023-11-21T20:29:11;94404.66;;;4.77;100.00
43934;BME280;59081;42.706;23.306;2023-11-21T20:34:12;94409.19;;;5.23;100.00
43934;BME280;59081;42.706;23.306;2023-11-21T20:39:12;94427.78;;;5.68;100.00
43934;BME280;59081;42.706;23.306;2023-11-21T20:44:15;94538.97;;;5.71;100.00
43934;BME280;59081;42.706;23.306;2023-11-21T20:49:16;94457.13;;;5.64;100.00
43934;BME280;59081;42.706;23.306;2023-11-21T20:54:18;94387.63;;;4.70;100.00
43934;BME280;59081;42.706;23.306;2023-11-21T20:59:18;94393.28;;;4.59;100.00
43934;BME280;59081;42.706;23.306;2023-11-21T21:04:19;94449.28;;;5.66;100.00
43934;BME280;59081;42.706;23.306;2023-11-21T21:09:20;94449.59;;;5.12;100.00
43934;BME280;59081;42.706;23.306;2023-11-21T21:14:21;94419.16;;;5.34;100.00
43934;BME280;59081;42.706;23.306;2023-11-21T21:19:24;94297.66;;;4.27;100.00
43934;BME280;59081;42.706;23.306;2023-11-21T21:24:27;94525.50;;;5.80;100.00
43934;BME280;59081;42.706;23.306;2023-11-21T21:29:28;94441.97;;;5.43;100.00
43934;BME280;59081;42.706;23.306;2023-11-21T21:34:28;94402.03;;;4.70;100.00
43934;BME280;59081;42.706;23.306;2023-11-21T21:39:29;94408.91;;;5.38;100.00
43934;BME280;59081;42.706;23.306;2023-11-21T21:44:29;94430.84;;;5.14;100.00
43934;BME280;59081;42.706;23.306;2023-11-21T21:49:30;94435.81;;;5.19;100.00
43934;BME280;59081;42.706;23.306;2023-11-21T21:54:31;94537.47;;;6.06;100.00
43934;BME280;59081;42.706;23.306;2023-11-21T21:59:31;94320.59;;;4.29;100.00
43934;BME280;59081;42.706;23.306;2023-11-21T22:04:32;94390.78;;;5.28;100.00
43934;BME280;59081;42.706;23.306;2023-11-21T22:09:34;94422.59;;;4.98;100.00
43934;BME280;59081;42.706;23.306;2023-11-21T22:14:35;94436.84;;;5.45;100.00
43934;BME280;59081;42.706;23.306;2023-11-21T22:19:36;94403.13;;;4.96;100.00
43934;BME280;59081;42.706;23.306;2023-11-21T22:24:37;94325.22;;;4.52;100.00
43934;BME280;59081;42.706;23.306;2023-11-21T22:29:38;94352.78;;;4.58;100.00
43934;BME280;59081;42.706;23.306;2023-11-21T22:34:39;94417.16;;;4.75;100.00
43934;BME280;59081;42.706;23.306;2023-11-21T22:39:41;94390.16;;;5.20;100.00
43934;BME280;59081;42.706;23.306;2023-11-21T22:44:41;94403.84;;;4.57;100.00
43934;BME280;59081;42.706;23.306;2023-11-21T22:49:42;94429.25;;;5.17;100.00
43934;BME280;59081;42.706;23.306;2023-11-21T22:54:42;94409.53;;;4.86;100.00
43934;BME280;59081;42.706;23.306;2023-11-21T22:59:43;94518.63;;;5.72;100.00
43934;BME280;59081;42.706;23.306;2023-11-21T23:04:44;94482.16;;;5.23;100.00
43934;BME280;59081;42.706;23.306;2023-11-21T23:09:45;94337.16;;;4.38;100.00
43934;BME280;59081;42.706;23.306;2023-11-21T23:14:46;94388.91;;;5.05;100.00
43934;BME280;59081;42.706;23.306;2023-11-21T23:19:46;94288.22;;;3.88;100.00
43934;BME280;59081;42.706;23.306;2023-11-21T23:24:47;94455.72;;;5.56;100.00
43934;BME280;59081;42.706;23.306;2023-11-21T23:29:48;94504.59;;;5.54;100.00
43934;BME280;59081;42.706;23.306;2023-11-21T23:34:53;94492.31;;;5.62;100.00
43934;BME280;59081;42.706;23.306;2023-11-21T23:39:54;94511.91;;;5.57;100.00
43934;BME280;59081;42.706;23.306;2023-11-21T23:44:54;94314.66;;;4.34;100.00
43934;BME280;59081;42.706;23.306;2023-11-21T23:49:55;94393.09;;;4.89;100.00
43934;BME280;59081;42.706;23.306;2023-11-21T23:54:58;94463.03;;;5.03;100.00
43934;BME280;59081;42.706;23.306;2023-11-21T23:59:59;94494.03;;;5.92;100.00
